Time;durP1;ratioP1;P1;durP2;ratioP2;P2;SDS_P1;SDS_P2;PMS_P1;PMS_P2;Temp;Humidity;BMP_temperature;BMP_pressure;BME280_temperature;BME280_humidity;BME280_pressure;Samples;Min_cycle;Max_cycle;Signal;HPM_P1;HPM_P2
2023/02/19 00:01:21;;;;;;;3.00;2.03;;;;;;;9.54;100.00;101770.03;5006256;28;20052;-73
2023/02/19 00:03:57;;;;;;;3.03;2.17;;;;;;;9.56;100.00;101759.53;5047482;28;20129;-73
2023/02/19 00:06:24;;;;;;;2.42;1.83;;;;;;;9.55;100.00;101758.66;5044022;28;20024;-73
2023/02/19 00:08:50;;;;;;;3.03;2.10;;;;;;;9.56;100.00;101760.34;5033135;28;20091;-73
2023/02/19 00:11:18;;;;;;;2.35;1.98;;;;;;;9.56;100.00;101759.53;5008754;28;20021;-73
2023/02/19 00:13:44;;;;;;;3.47;2.03;;;;;;;9.56;100.00;101760.34;4987968;28;20026;-73
2023/02/19 00:16:15;;;;;;;2.20;2.00;;;;;;;9.56;100.00;101760.34;5024730;28;20081;-73
2023/02/19 00:18:40;;;;;;;4.05;1.70;;;;;;;9.54;100.00;101756.16;5035277;28;20040;-73
2023/02/19 00:21:06;;;;;;;3.90;2.10;;;;;;;9.56;100.00;101751.22;5018509;28;20034;-73
2023/02/19 00:23:31;;;;;;;2.53;1.90;;;;;;;9.55;100.00;101755.06;5003622;28;20371;-73
2023/02/19 00:26:04;;;;;;;2.20;1.80;;;;;;;9.55;100.00;101758.66;5020112;28;20666;-73
2023/02/19 00:28:29;;;;;;;3.17;2.00;;;;;;;9.55;100.00;101749.50;5032024;28;20029;-73
2023/02/19 00:30:55;;;;;;;3.00;2.28;;;;;;;9.55;100.00;101739.25;5019961;28;20026;-73
2023/02/19 00:33:20;;;;;;;3.58;2.00;;;;;;;9.54;100.00;101723.72;5036386;28;20025;-73
2023/02/19 00:35:45;;;;;;;3.58;1.77;;;;;;;9.54;100.00;101734.81;5036119;28;20029;-73
2023/02/19 00:38:11;;;;;;;4.28;2.40;;;;;;;9.53;100.00;101744.22;5031429;28;20041;-73
2023/02/19 00:40:37;;;;;;;4.35;2.15;;;;;;;9.55;100.00;101757.81;5011845;28;20048;-73
2023/02/19 00:43:02;;;;;;;3.55;2.10;;;;;;;9.52;100.00;101748.09;5007859;28;20081;-73
2023/02/19 00:45:28;;;;;;;3.17;1.70;;;;;;;9.52;100.00;101737.00;5003518;28;20517;-73
2023/02/19 00:47:53;;;;;;;2.95;1.73;;;;;;;9.52;100.00;101738.94;5019767;28;20533;-73
2023/02/19 00:50:19;;;;;;;2.65;1.73;;;;;;;9.52;100.00;101733.38;5007998;28;20398;-73
2023/02/19 00:52:44;;;;;;;4.70;1.73;;;;;;;9.52;100.00;101725.06;5046111;28;20025;-73
2023/02/19 00:55:10;;;;;;;2.30;1.70;;;;;;;9.51;100.00;101728.94;5036116;28;20041;-73
2023/02/19 00:57:35;;;;;;;4.13;1.90;;;;;;;9.50;100.00;101732.78;5014546;28;20522;-73
2023/02/19 01:00:01;;;;;;;2.85;1.60;;;;;;;9.49;100.00;101745.81;5035164;28;20034;-73
2023/02/19 01:02:26;;;;;;;2.97;1.88;;;;;;;9.49;100.00;101729.19;5002919;28;20037;-73
2023/02/19 01:04:52;;;;;;;3.03;1.92;;;;;;;9.47;100.00;101723.09;5035788;28;20386;-73
2023/02/19 01:07:17;;;;;;;2.55;1.70;;;;;;;9.46;100.00;101721.38;4987014;28;20152;-73
2023/02/19 01:09:43;;;;;;;2.83;1.95;;;;;;;9.45;100.00;101716.94;5009947;28;20389;-73
2023/02/19 01:12:08;;;;;;;3.33;1.83;;;;;;;9.43;100.00;101710.81;5024324;28;20025;-73
2023/02/19 01:14:34;;;;;;;2.97;2.00;;;;;;;9.44;100.00;101718.03;5035688;28;20033;-73
2023/02/19 01:17:00;;;;;;;3.25;1.60;;;;;;;9.42;100.00;101714.69;5021076;28;20486;-73
2023/02/19 01:19:25;;;;;;;2.85;1.90;;;;;;;9.39;100.00;101731.84;5035337;28;20048;-73
2023/02/19 01:21:50;;;;;;;4.75;1.90;;;;;;;9.35;100.00;101738.97;4986732;28;20026;-73
2023/02/19 01:24:16;;;;;;;2.67;1.90;;;;;;;9.38;100.00;101747.63;4986742;28;20037;-73
2023/02/19 01:26:41;;;;;;;2.92;1.65;;;;;;;9.37;100.00;101739.56;5035439;28;20029;-72
2023/02/19 01:29:07;;;;;;;2.95;1.77;;;;;;;9.37;100.00;101734.03;5035466;28;20036;-73
2023/02/19 01:31:33;;;;;;;3.83;1.90;;;;;;;9.35;100.00;101730.66;5030167;28;20037;-73
2023/02/19 01:33:59;;;;;;;3.67;1.98;;;;;;;9.34;100.00;101729.00;5006844;28;20040;-73
2023/02/19 01:36:25;;;;;;;3.65;1.88;;;;;;;9.32;100.00;101726.47;5035575;28;20033;-73
2023/02/19 01:38:51;;;;;;;3.85;1.85;;;;;;;9.32;100.00;101725.63;5002379;28;20029;-73
2023/02/19 01:41:18;;;;;;;2.83;1.73;;;;;;;9.32;100.00;101742.28;5049380;28;20052;-73
2023/02/19 01:44:04;;;;;;;2.85;1.80;;;;;;;9.32;100.00;101736.72;5018909;28;20474;-73
2023/02/19 01:46:31;;;;;;;2.97;1.77;;;;;;;9.30;100.00;101730.59;5047082;28;20132;-73
2023/02/19 01:48:58;;;;;;;4.70;1.73;;;;;;;9.32;100.00;101725.63;5018614;28;20108;-73
2023/02/19 01:51:23;;;;;;;2.58;2.20;;;;;;;9.29;100.00;101735.31;5002089;28;20045;-73
2023/02/19 01:53:52;;;;;;;2.15;1.90;;;;;;;9.29;100.00;101740.00;5006600;28;20037;-73
2023/02/19 01:56:17;;;;;;;4.28;1.67;;;;;;;9.29;100.00;101731.69;5002226;28;20057;-72
2023/02/19 01:58:43;;;;;;;2.53;1.50;;;;;;;9.29;100.00;101728.91;5008781;28;20029;-73
2023/02/19 02:01:08;;;;;;;3.10;1.83;;;;;;;9.29;100.00;101734.47;5020989;28;20060;-73
2023/02/19 02:03:38;;;;;;;2.10;1.60;;;;;;;9.28;100.00;101730.03;5002204;28;20108;-73
2023/02/19 02:06:21;;;;;;;3.05;1.98;;;;;;;9.27;100.00;101728.34;5018099;28;20481;-73
2023/02/19 02:11:31;;;;;;;3.53;1.92;;;;;;;9.29;100.00;101723.38;5039935;28;20028;-73
2023/02/19 02:13:56;;;;;;;3.30;1.80;;;;;;;9.28;100.00;101722.53;4987671;28;20032;-73
2023/02/19 02:16:53;;;;;;;2.72;2.00;;;;;;;9.29;100.00;101720.59;5012232;28;20041;-73
2023/02/19 02:19:43;;;;;;;2.42;1.83;;;;;;;9.28;100.00;101722.53;5004645;28;20055;-73
2023/02/19 02:22:32;;;;;;;2.63;1.70;;;;;;;9.28;100.00;101727.25;5034185;28;20026;-73
2023/02/19 02:25:27;;;;;;;2.92;1.88;;;;;;;9.28;100.00;101732.81;5025127;28;20036;-73
2023/02/19 02:28:13;;;;;;;4.57;2.20;;;;;;;9.27;100.00;101733.88;5044436;28;20025;-73
2023/02/19 02:31:00;;;;;;;3.25;1.98;;;;;;;9.24;100.00;101728.84;5040032;28;20029;-73
2023/02/19 02:33:38;;;;;;;3.63;2.22;;;;;;;9.26;100.00;101732.22;5053954;28;20056;-73
2023/02/19 02:36:11;;;;;;;3.38;1.95;;;;;;;9.25;100.00;101727.75;5053944;28;20029;-73
2023/02/19 02:38:38;;;;;;;3.15;1.77;;;;;;;9.23;100.00;101727.19;5038044;28;20036;-73
2023/02/19 02:41:04;;;;;;;2.80;1.70;;;;;;;9.21;100.00;101730.19;5017788;28;20042;-73
2023/02/19 02:43:30;;;;;;;3.00;1.88;;;;;;;9.21;100.00;101734.91;5020058;28;20075;-73
2023/02/19 02:45:55;;;;;;;2.55;2.00;;;;;;;9.20;100.00;101736.00;5017515;28;20026;-73
2023/02/19 02:48:32;;;;;;;3.38;1.63;;;;;;;9.19;100.00;101737.91;5001204;28;20036;-73
2023/02/19 02:51:06;;;;;;;2.30;1.80;;;;;;;9.17;100.00;101729.03;5033814;28;20029;-73
2023/02/19 02:56:19;;;;;;;2.50;1.60;;;;;;;9.15;100.00;101740.38;5034061;28;20056;-73
2023/02/19 02:58:45;;;;;;;2.47;1.80;;;;;;;9.12;100.00;101740.03;5025249;28;20037;-73
2023/02/19 03:04:30;;;;;;;2.22;1.70;;;;;;;9.10;100.00;101745.00;5048080;28;20037;-73
2023/02/19 03:06:55;;;;;;;3.78;2.17;;;;;;;9.11;100.00;101739.22;5026887;28;20033;-73
2023/02/19 03:09:29;;;;;;;3.55;1.73;;;;;;;9.13;100.00;101738.94;5041096;28;20043;-73
2023/02/19 03:20:16;;;;;;;2.58;1.50;;;;;;;9.10;100.00;101733.91;5039753;28;20035;-73
2023/02/19 03:22:42;;;;;;;4.45;3.30;;;;;;;9.10;100.00;101728.38;5037098;28;20033;-73
2023/02/19 03:28:03;;;;;;;11.32;7.10;;;;;;;9.09;100.00;101733.06;5043888;28;20569;-73
2023/02/19 03:30:32;;;;;;;10.93;7.28;;;;;;;9.07;100.00;101735.25;5041035;28;20029;-73
2023/02/19 03:33:06;;;;;;;10.85;7.70;;;;;;;9.06;100.00;101733.59;5028276;28;20038;-73
2023/02/19 03:35:37;;;;;;;10.63;8.02;;;;;;;9.10;100.00;101733.91;5037427;28;20533;-73
2023/02/19 03:38:17;;;;;;;9.80;6.80;;;;;;;9.06;100.00;101733.59;5037510;28;20091;-73
2023/02/19 03:41:06;;;;;;;10.65;7.30;;;;;;;9.09;100.00;101732.25;5010892;28;20056;-73
2023/02/19 03:43:39;;;;;;;9.02;6.50;;;;;;;9.08;100.00;101725.88;5020664;28;20120;-73
2023/02/19 03:46:09;;;;;;;7.38;5.95;;;;;;;9.09;100.00;101723.94;5033528;28;20028;-73
2023/02/19 03:48:35;;;;;;;8.32;6.57;;;;;;;9.07;100.00;101732.47;5030423;28;20041;-73
2023/02/19 03:51:13;;;;;;;7.93;6.00;;;;;;;9.06;100.00;101724.44;5038254;28;20030;-73
2023/02/19 03:54:16;;;;;;;7.38;5.30;;;;;;;9.05;100.00;101723.56;5038780;28;20037;-73
2023/02/19 03:56:46;;;;;;;6.82;5.20;;;;;;;9.04;100.00;101719.13;5045773;28;20017;-73
2023/02/19 03:59:21;;;;;;;6.95;4.63;;;;;;;9.06;100.00;101732.75;5024040;28;20025;-73
2023/02/19 04:01:50;;;;;;;8.07;4.55;;;;;;;9.05;100.00;101722.75;5015370;28;20051;-73
2023/02/19 04:04:25;;;;;;;5.55;3.85;;;;;;;9.06;100.00;101721.66;5047353;28;20103;-73
2023/02/19 04:06:54;;;;;;;6.00;4.15;;;;;;;9.04;100.00;101723.84;5047439;28;20078;-73
2023/02/19 04:09:20;;;;;;;6.22;3.90;;;;;;;9.04;100.00;101730.22;5036072;28;20040;-73
2023/02/19 04:11:47;;;;;;;5.55;3.60;;;;;;;9.03;100.00;101734.09;5009353;28;20053;-73
2023/02/19 04:14:37;;;;;;;5.25;3.40;;;;;;;9.03;100.00;101736.88;5006037;28;20030;-73
2023/02/19 04:17:09;;;;;;;6.00;3.38;;;;;;;9.05;100.00;101731.88;5019766;28;20104;-73
2023/02/19 04:19:36;;;;;;;6.07;2.80;;;;;;;9.04;100.00;101723.84;5020558;28;20025;-73
2023/02/19 04:22:01;;;;;;;6.50;3.20;;;;;;;9.03;100.00;101725.78;5015512;28;20101;-73
2023/02/19 04:24:33;;;;;;;5.53;3.25;;;;;;;9.03;100.00;101741.56;5036710;28;20651;-73
2023/02/19 04:26:59;;;;;;;3.90;3.00;;;;;;;8.99;100.00;101737.63;5020661;28;20032;-73
2023/02/19 04:29:24;;;;;;;5.78;2.67;;;;;;;8.99;100.00;101732.91;5010134;28;20382;-73
2023/02/19 04:31:50;;;;;;;4.50;2.80;;;;;;;9.00;100.00;101739.28;5020055;28;20021;-73
2023/02/19 04:34:15;;;;;;;4.88;3.30;;;;;;;9.01;100.00;101746.53;5026326;28;20025;-73
2023/02/19 04:36:41;;;;;;;4.78;2.33;;;;;;;9.00;100.00;101739.28;5031879;28;20044;-73
2023/02/19 04:39:07;;;;;;;3.95;2.40;;;;;;;9.01;100.00;101741.81;5036406;28;20037;-73
2023/02/19 04:41:33;;;;;;;5.68;2.53;;;;;;;9.01;100.00;101740.97;5019720;28;20066;-73
2023/02/19 04:43:58;;;;;;;5.72;2.45;;;;;;;8.98;100.00;101742.31;5013839;28;20029;-73
2023/02/19 04:46:24;;;;;;;6.28;2.15;;;;;;;9.00;100.00;101744.81;5020175;28;20030;-73
2023/02/19 04:48:49;;;;;;;4.72;2.28;;;;;;;8.97;100.00;101751.75;5009270;28;20045;-73
2023/02/19 04:51:15;;;;;;;5.30;2.03;;;;;;;8.95;100.00;101754.75;5035622;28;20025;-73
2023/02/19 04:53:41;;;;;;;5.72;1.80;;;;;;;8.95;100.00;101759.47;5019917;28;20025;-73
2023/02/19 04:56:13;;;;;;;4.32;1.83;;;;;;;8.92;100.00;101757.19;5039340;28;20560;-73
2023/02/19 04:58:39;;;;;;;7.00;1.70;;;;;;;8.92;100.00;101759.97;5023359;28;20037;-73
2023/02/19 05:01:04;;;;;;;7.57;2.28;;;;;;;8.90;100.00;101764.91;5031607;28;20486;-73
2023/02/19 05:03:30;;;;;;;7.18;1.88;;;;;;;8.90;100.00;101765.75;5045688;28;20029;-73
2023/02/19 05:05:55;;;;;;;6.40;1.83;;;;;;;8.90;100.00;101764.91;5035976;28;20034;-73
2023/02/19 05:08:21;;;;;;;6.45;1.83;;;;;;;8.89;100.00;101766.84;5006441;28;20028;-73
2023/02/19 05:10:47;;;;;;;5.03;1.52;;;;;;;8.89;100.00;101771.56;5012614;28;20037;-73
2023/02/19 05:13:12;;;;;;;6.03;1.70;;;;;;;8.87;100.00;101776.50;5036929;28;20057;-73
2023/02/19 05:15:38;;;;;;;10.30;2.20;;;;;;;8.85;100.00;101787.00;5031904;28;20030;-73
2023/02/19 05:18:03;;;;;;;11.77;1.83;;;;;;;8.85;100.00;101787.81;5035727;28;20083;-73
2023/02/19 05:20:29;;;;;;;10.00;1.85;;;;;;;8.83;100.00;101791.94;5018818;28;20037;-72
2023/02/19 05:22:54;;;;;;;10.27;1.60;;;;;;;8.82;100.00;101795.81;5024893;28;20408;-73
2023/02/19 05:25:20;;;;;;;10.60;1.80;;;;;;;8.82;100.00;101787.50;5035494;28;20029;-73
2023/02/19 05:27:45;;;;;;;14.60;2.30;;;;;;;8.81;100.00;101796.91;5035227;28;20029;-73
2023/02/19 05:30:11;;;;;;;10.02;1.88;;;;;;;8.79;100.00;101799.91;5036520;28;20079;-73
2023/02/19 05:32:36;;;;;;;12.13;2.15;;;;;;;8.77;100.00;101804.03;5035648;28;20482;-73
2023/02/19 05:35:02;;;;;;;10.98;2.10;;;;;;;8.75;100.00;101806.19;5002448;28;20057;-73
2023/02/19 05:37:27;;;;;;;9.52;1.88;;;;;;;8.73;100.00;101803.69;5024411;28;20044;-73
2023/02/19 05:39:53;;;;;;;16.98;2.13;;;;;;;8.70;100.00;101806.97;5038852;28;20383;-73
2023/02/19 05:42:18;;;;;;;11.57;1.88;;;;;;;8.68;100.00;101803.59;5038578;28;20040;-73
2023/02/19 05:44:44;;;;;;;9.68;1.60;;;;;;;8.69;100.00;101800.59;5052859;28;20044;-73
2023/02/19 05:47:09;;;;;;;13.40;1.77;;;;;;;8.69;100.00;101810.81;5034557;28;20390;-73
2023/02/19 05:49:35;;;;;;;8.75;1.60;;;;;;;8.65;100.00;101816.00;5034621;28;20030;-73
2023/02/19 05:52:00;;;;;;;10.50;1.55;;;;;;;8.61;100.00;101813.97;5034817;28;20068;-73
2023/02/19 05:54:29;;;;;;;8.73;1.73;;;;;;;8.59;100.00;101817.03;5015774;28;20022;-73
2023/02/19 05:56:54;;;;;;;20.60;1.80;;;;;;;8.59;100.00;101821.72;5007544;28;20060;-73
2023/02/19 05:59:21;;;;;;;8.15;1.30;;;;;;;8.58;100.00;101826.44;5018211;28;20034;-73
2023/02/19 06:01:48;;;;;;;5.43;1.05;;;;;;;8.53;100.00;101848.47;5018368;28;20036;-73
2023/02/19 06:04:14;;;;;;;9.57;1.50;;;;;;;8.49;100.00;101834.25;5034448;28;20514;-73
2023/02/19 06:06:39;;;;;;;14.95;2.53;;;;;;;8.49;100.00;101844.50;5018523;28;20036;-73
2023/02/19 06:09:05;;;;;;;11.35;2.35;;;;;;;8.45;100.00;101848.88;5024977;28;20120;-73
2023/02/19 06:11:31;;;;;;;13.30;2.13;;;;;;;8.41;100.00;101855.97;5032622;28;20029;-73
2023/02/19 06:13:56;;;;;;;8.77;1.83;;;;;;;8.38;100.00;101854.50;5055587;28;20071;-73
2023/02/19 06:16:22;;;;;;;8.80;1.40;;;;;;;8.35;100.00;101848.63;5055580;28;20029;-73
2023/02/19 06:18:47;;;;;;;7.82;1.85;;;;;;;8.33;100.00;101850.78;5001597;28;20060;-73
2023/02/19 06:21:14;;;;;;;7.25;1.23;;;;;;;8.34;100.00;101852.50;5018028;28;20029;-73
2023/02/19 06:23:40;;;;;;;9.73;1.33;;;;;;;8.32;100.00;101851.91;5001881;28;20091;-73
2023/02/19 06:26:10;;;;;;;11.93;1.48;;;;;;;8.28;100.00;101855.16;5018059;28;20041;-73
2023/02/19 06:28:36;;;;;;;7.10;1.40;;;;;;;8.24;100.00;101842.88;5018008;28;20025;-73
2023/02/19 06:31:02;;;;;;;12.05;1.30;;;;;;;8.25;100.00;101844.59;5001370;28;20458;-73
2023/02/19 06:33:28;;;;;;;8.63;1.45;;;;;;;8.24;100.00;101848.41;5034347;28;20033;-73
2023/02/19 06:35:53;;;;;;;8.35;1.25;;;;;;;8.27;100.00;101850.72;5024337;28;20169;-73
2023/02/19 06:38:22;;;;;;;9.70;1.40;;;;;;;8.26;100.00;101856.50;5051222;28;20063;-72
2023/02/19 06:40:47;;;;;;;8.85;1.63;;;;;;;8.27;100.00;101853.50;5017141;28;20049;-73
2023/02/19 06:43:13;;;;;;;7.72;1.80;;;;;;;8.26;100.00;101854.56;5018051;28;20032;-73
2023/02/19 06:45:38;;;;;;;7.22;1.50;;;;;;;8.20;100.00;101850.00;5017751;28;20037;-73
2023/02/19 06:48:04;;;;;;;8.50;1.65;;;;;;;8.17;100.00;101864.34;5034087;28;20103;-73
2023/02/19 06:50:30;;;;;;;10.13;1.75;;;;;;;8.16;100.00;101867.34;5033720;28;20025;-73
2023/02/19 06:52:55;;;;;;;6.63;1.40;;;;;;;8.21;100.00;101871.06;4989046;28;20036;-73
2023/02/19 06:55:20;;;;;;;7.65;1.50;;;;;;;8.19;100.00;101870.47;5034048;28;20026;-73
2023/02/19 06:57:46;;;;;;;6.60;1.60;;;;;;;8.16;100.00;101878.41;5032814;28;20025;-73
2023/02/19 07:00:12;;;;;;;13.85;2.20;;;;;;;8.15;100.00;101880.34;5053280;28;20493;-73
2023/02/19 07:02:37;;;;;;;6.90;1.67;;;;;;;8.12;100.00;101883.59;5001159;28;20056;-73
2023/02/19 07:05:03;;;;;;;7.10;1.77;;;;;;;8.13;100.00;101881.66;5017355;28;20402;-73
2023/02/19 07:07:28;;;;;;;8.05;1.85;;;;;;;8.10;100.00;101885.75;5031694;28;20065;-73
2023/02/19 07:09:54;;;;;;;9.45;1.88;;;;;;;8.09;100.00;101883.25;5046060;28;20021;-73
2023/02/19 07:12:19;;;;;;;11.50;1.65;;;;;;;8.10;100.00;101887.69;5038048;28;20034;-73
2023/02/19 07:14:45;;;;;;;7.95;1.88;;;;;;;8.08;100.00;101879.66;5006437;28;20025;-73
2023/02/19 07:17:10;;;;;;;10.65;2.28;;;;;;;8.10;100.00;101891.28;5032557;28;20041;-73
2023/02/19 07:19:36;;;;;;;14.95;2.95;;;;;;;8.06;100.00;101885.41;5028542;28;20091;-73
2023/02/19 07:22:01;;;;;;;10.70;2.20;;;;;;;8.09;100.00;101899.84;5033706;28;20033;-73
2023/02/19 07:24:27;;;;;;;11.85;2.53;;;;;;;8.05;100.00;101894.81;5033615;28;20045;-73
2023/02/19 07:26:52;;;;;;;12.27;2.67;;;;;;;8.04;100.00;101901.41;5017175;28;20029;-73
2023/02/19 07:29:18;;;;;;;8.52;2.53;;;;;;;8.05;100.00;101905.88;5017252;28;20036;-73
2023/02/19 07:31:43;;;;;;;11.23;2.22;;;;;;;8.01;100.00;101906.59;5033683;28;20605;-73
2023/02/19 07:34:09;;;;;;;10.93;2.60;;;;;;;8.03;100.00;101918.28;5021390;28;20037;-73
2023/02/19 07:36:34;;;;;;;7.97;1.65;;;;;;;8.03;100.00;101915.50;5033483;28;20029;-73
2023/02/19 07:39:00;;;;;;;11.00;2.05;;;;;;;8.02;100.00;101916.56;5021097;28;20030;-73
2023/02/19 07:41:26;;;;;;;8.73;1.80;;;;;;;8.02;100.00;101917.44;5048506;28;20103;-73
2023/02/19 07:43:52;;;;;;;9.20;1.85;;;;;;;8.00;100.00;101921.53;5020697;28;20056;-73
2023/02/19 07:46:17;;;;;;;10.82;2.33;;;;;;;8.02;100.00;101920.22;5039588;28;20040;-73
2023/02/19 07:48:43;;;;;;;11.52;2.13;;;;;;;7.98;100.00;101915.38;5022188;28;20034;-74
2023/02/19 07:51:15;;;;;;;8.68;1.95;;;;;;;7.99;100.00;101928.13;5033199;28;20030;-74
2023/02/19 07:53:41;;;;;;;15.57;4.50;;;;;;;7.98;100.00;101930.06;5034991;28;20537;-74
2023/02/19 07:56:06;;;;;;;9.40;3.22;;;;;;;8.00;100.00;101927.91;5012833;28;20044;-76
2023/02/19 07:58:33;;;;;;;10.32;2.65;;;;;;;8.01;100.00;101929.56;5033068;28;20029;-73
2023/02/19 08:01:18;;;;;;;17.45;2.72;;;;;;;8.01;100.00;101931.50;5012990;28;20211;-73
2023/02/19 08:03:43;;;;;;;14.27;2.65;;;;;;;8.02;100.00;101936.81;5034356;28;20037;-73
2023/02/19 08:06:10;;;;;;;9.40;2.67;;;;;;;8.02;100.00;101933.16;5033228;28;20034;-73
2023/02/19 08:08:36;;;;;;;13.70;2.22;;;;;;;8.05;100.00;101938.22;5022280;28;20111;-73
2023/02/19 08:13:50;;;;;;;12.15;2.03;;;;;;;8.10;100.00;101949.41;5023013;28;20033;-73
2023/02/19 08:16:16;;;;;;;12.13;2.15;;;;;;;8.13;100.00;101961.91;5036860;28;20029;-73
2023/02/19 08:18:42;;;;;;;10.15;2.20;;;;;;;8.14;100.00;101952.56;5003751;28;20661;-73
2023/02/19 08:21:07;;;;;;;11.07;2.42;;;;;;;8.13;100.00;101948.91;5036813;28;20104;-73
2023/02/19 08:23:33;;;;;;;15.13;2.97;;;;;;;8.14;100.00;101950.63;5036853;28;20033;-72
2023/02/19 08:25:59;;;;;;;12.40;2.58;;;;;;;8.15;100.00;101955.06;5036618;28;20500;-73
2023/02/19 08:28:24;;;;;;;8.57;2.97;;;;;;;8.19;100.00;101961.81;5036666;28;20071;-73
2023/02/19 08:30:50;;;;;;;15.50;2.88;;;;;;;8.22;100.00;101961.31;5020063;28;20034;-73
2023/02/19 08:33:18;;;;;;;7.10;2.17;;;;;;;8.26;100.00;101961.66;5030799;28;20094;-72
2023/02/19 08:35:44;;;;;;;9.68;2.20;;;;;;;8.28;100.00;101954.81;5020194;28;20034;-73
2023/02/19 08:38:10;;;;;;;11.90;3.10;;;;;;;8.34;100.00;101960.47;5031951;28;20040;-73
2023/02/19 08:40:38;;;;;;;13.63;2.75;;;;;;;8.35;100.00;101957.44;5036311;28;20048;-72
2023/02/19 08:43:11;;;;;;;15.65;4.32;;;;;;;8.39;100.00;101955.06;5056156;28;20079;-73
2023/02/19 08:45:37;;;;;;;15.43;4.35;;;;;;;8.43;100.00;101956.25;5042070;28;20053;-72
2023/02/19 08:48:02;;;;;;;33.28;12.02;;;;;;;8.47;100.00;101952.75;5039539;28;20080;-72
2023/02/19 08:50:28;;;;;;;25.33;6.72;;;;;;;8.51;100.00;101950.31;5055909;28;20037;-73
2023/02/19 08:52:53;;;;;;;20.30;6.43;;;;;;;8.55;100.00;101940.44;5027390;28;20029;-72
2023/02/19 08:55:19;;;;;;;12.55;5.05;;;;;;;8.60;100.00;101946.06;4987234;28;20470;-72
2023/02/19 08:57:44;;;;;;;19.20;5.10;;;;;;;8.66;100.00;101945.13;5035768;28;20025;-73
2023/02/19 09:00:10;;;;;;;13.88;4.22;;;;;;;8.71;100.00;101941.59;5035919;28;20026;-73
2023/02/19 09:02:36;;;;;;;17.63;4.50;;;;;;;8.76;100.00;101940.84;5036134;28;20037;-73
2023/02/19 09:05:02;;;;;;;9.35;3.00;;;;;;;8.83;100.00;101945.16;5027821;28;20036;-73
2023/02/19 09:07:27;;;;;;;13.05;4.18;;;;;;;8.87;100.00;101945.50;5052723;28;20037;-73
2023/02/19 09:09:53;;;;;;;13.43;3.85;;;;;;;8.91;100.00;101947.53;5030378;28;20390;-72
2023/02/19 09:12:18;;;;;;;17.45;3.85;;;;;;;8.97;100.00;101948.47;5040033;28;20037;-73
2023/02/19 09:14:44;;;;;;;13.68;4.25;;;;;;;9.02;100.00;101951.31;5035756;28;20030;-73
2023/02/19 09:17:10;;;;;;;12.98;3.83;;;;;;;9.08;100.00;101961.44;4986476;28;20033;-72
2023/02/19 09:19:35;;;;;;;14.73;3.65;;;;;;;9.13;100.00;101961.50;5025784;28;20025;-72
2023/02/19 09:22:02;;;;;;;14.05;3.58;;;;;;;9.18;100.00;101966.31;5014986;28;20056;-73
2023/02/19 09:24:27;;;;;;;15.90;3.85;;;;;;;9.22;100.00;101972.19;5025797;28;20040;-73
2023/02/19 09:26:53;;;;;;;12.63;3.55;;;;;;;9.26;100.00;101974.22;5051735;28;20497;-73
2023/02/19 09:29:19;;;;;;;13.45;2.78;;;;;;;9.29;100.00;101976.50;5056603;28;20044;-73
2023/02/19 09:31:44;;;;;;;16.02;3.70;;;;;;;9.34;100.00;101981.28;5038714;28;20025;-73
2023/02/19 09:34:10;;;;;;;12.43;2.80;;;;;;;9.39;100.00;101981.41;5035237;28;20022;-73
2023/02/19 09:36:36;;;;;;;8.25;2.55;;;;;;;9.45;100.00;101983.16;5031702;28;20526;-73
2023/02/19 09:39:03;;;;;;;11.00;2.72;;;;;;;9.46;100.00;101979.28;5036439;28;20040;-74
2023/02/19 09:41:32;;;;;;;13.55;2.50;;;;;;;9.48;100.00;101990.13;5049092;28;20041;-73
2023/02/19 09:43:59;;;;;;;10.55;2.22;;;;;;;9.49;100.00;101992.66;5036296;28;20069;-73
2023/02/19 09:46:38;;;;;;;9.13;1.70;;;;;;;9.53;100.00;101987.47;4986393;28;20038;-73
2023/02/19 09:49:05;;;;;;;10.93;2.03;;;;;;;9.58;100.00;101980.06;5019707;28;20065;-73
2023/02/19 09:51:33;;;;;;;7.57;2.13;;;;;;;9.63;100.00;101982.91;5018716;28;20021;-73
2023/02/19 09:53:58;;;;;;;8.35;1.88;;;;;;;9.67;100.00;101983.25;5019994;28;20587;-73
2023/02/19 09:56:25;;;;;;;8.07;1.88;;;;;;;9.72;100.00;101997.22;5034889;28;20029;-73
2023/02/19 09:58:51;;;;;;;10.65;1.83;;;;;;;9.77;100.00;101990.88;5034787;28;20108;-73
2023/02/19 10:01:17;;;;;;;12.85;2.00;;;;;;;9.82;100.00;101993.75;5018154;28;20033;-73
2023/02/19 10:03:45;;;;;;;4.70;1.27;;;;;;;9.87;100.00;101993.84;5034464;28;20026;-72
2023/02/19 10:06:14;;;;;;;10.45;2.55;;;;;;;9.91;100.00;102003.31;5034172;28;20029;-73
2023/02/19 10:08:39;;;;;;;8.45;2.53;;;;;;;9.97;100.00;102007.88;5041958;28;20043;-73
2023/02/19 10:11:05;;;;;;;8.80;2.42;;;;;;;10.04;100.00;102022.41;5023268;28;20038;-73
2023/02/19 10:13:41;;;;;;;8.65;1.80;;;;;;;10.11;100.00;102001.97;5027603;28;20056;-73
2023/02/19 10:16:14;;;;;;;10.13;2.15;;;;;;;10.17;100.00;102009.25;5025769;28;20114;-73
2023/02/19 10:18:42;;;;;;;7.80;1.73;;;;;;;10.24;100.00;102001.59;5038701;28;20025;-73
2023/02/19 10:21:14;;;;;;;14.85;2.58;;;;;;;10.26;100.00;102004.97;5001825;28;20355;-73
2023/02/19 10:23:39;;;;;;;6.03;2.17;;;;;;;10.31;100.00;102005.09;4985762;28;20032;-73
2023/02/19 10:26:05;;;;;;;11.68;2.50;;;;;;;10.37;100.00;102001.28;5017969;28;20025;-73
2023/02/19 10:28:32;;;;;;;10.52;2.20;;;;;;;10.41;100.00;102001.59;5035690;28;20045;-73
2023/02/19 10:31:03;;;;;;;10.18;1.80;;;;;;;10.47;100.00;102006.13;5034330;28;20485;-73
2023/02/19 10:33:28;;;;;;;7.28;1.90;;;;;;;10.53;100.00;102013.44;5017265;28;20662;-73
2023/02/19 10:36:02;;;;;;;8.55;1.90;;;;;;;10.60;100.00;102011.31;5017951;28;20029;-73
2023/02/19 10:38:43;;;;;;;6.38;1.73;;;;;;;10.66;100.00;102009.44;5041407;28;20059;-76
2023/02/19 10:41:13;;;;;;;9.80;2.78;;;;;;;10.71;100.00;102010.34;5037184;28;20085;-73
2023/02/19 10:43:41;;;;;;;10.07;2.25;;;;;;;10.77;100.00;102013.19;5053083;28;20083;-73
2023/02/19 10:46:19;;;;;;;11.65;2.45;;;;;;;10.82;100.00;102008.53;5016858;28;20564;-73
2023/02/19 10:48:56;;;;;;;9.00;1.95;;;;;;;10.87;100.00;102008.59;5032814;28;20394;-73
2023/02/19 10:51:34;;;;;;;8.23;1.83;;;;;;;10.95;100.00;102010.91;5001990;28;20592;-73
2023/02/19 10:54:06;;;;;;;12.38;2.22;;;;;;;11.02;100.00;102010.69;5019530;28;20114;-73
2023/02/19 10:56:32;;;;;;;9.43;2.30;;;;;;;11.09;100.00;102010.53;5017885;28;20037;-73
2023/02/19 10:59:14;;;;;;;10.98;2.38;;;;;;;11.14;100.00;102008.63;5017537;28;20078;-73
2023/02/19 11:02:12;;;;;;;11.53;2.30;;;;;;;11.22;100.00;102010.09;5042174;28;20065;-73
2023/02/19 11:04:37;;;;;;;11.18;2.25;;;;;;;11.29;100.00;102009.91;5046012;28;20041;-73
2023/02/19 11:07:16;;;;;;;8.40;1.98;;;;;;;11.34;100.00;102013.56;5037249;28;20029;-73
2023/02/19 11:09:46;;;;;;;9.10;2.47;;;;;;;11.37;100.00;102017.75;5045360;28;20104;-73
2023/02/19 11:12:12;;;;;;;12.75;2.50;;;;;;;11.40;100.00;102025.59;5005334;28;20033;-73
2023/02/19 11:14:41;;;;;;;8.82;2.10;;;;;;;11.47;100.00;102030.91;5017330;28;20390;-73
2023/02/19 11:17:18;;;;;;;8.20;2.08;;;;;;;11.53;100.00;102024.28;5001307;28;20022;-73
2023/02/19 11:19:43;;;;;;;10.05;2.03;;;;;;;11.59;100.00;102039.97;5001955;28;20082;-73
2023/02/19 11:22:29;;;;;;;9.45;2.63;;;;;;;11.62;100.00;102039.44;5017245;28;20033;-73
2023/02/19 11:24:54;;;;;;;9.88;3.10;;;;;;;11.67;100.00;102047.81;5033720;28;20032;-73
2023/02/19 11:27:21;;;;;;;11.45;3.05;;;;;;;11.73;100.00;102049.56;5035185;28;20029;-73
2023/02/19 11:29:46;;;;;;;7.82;2.50;;;;;;;11.77;100.00;102047.06;5042911;28;20040;-73
2023/02/19 11:32:28;;;;;;;12.20;2.08;;;;;;;11.82;100.00;102056.31;5033894;28;20042;-73
2023/02/19 11:35:24;;;;;;;7.82;2.35;;;;;;;11.85;100.00;102053.03;5029451;28;20508;-73
2023/02/19 11:37:57;;;;;;;11.40;2.63;;;;;;;11.88;100.00;102060.00;5021948;28;20033;-73
2023/02/19 11:40:38;;;;;;;10.90;2.40;;;;;;;11.89;100.00;102058.88;5036722;28;20143;-74
2023/02/19 11:43:19;;;;;;;9.13;2.20;;;;;;;11.93;100.00;102060.06;5041651;28;20065;-73
2023/02/19 11:45:51;;;;;;;7.85;1.52;;;;;;;11.95;100.00;102052.28;5040231;28;20033;-73
2023/02/19 11:48:23;;;;;;;7.90;1.95;;;;;;;11.99;100.00;102049.78;5049403;28;20084;-73
2023/02/19 11:50:48;;;;;;;10.18;1.98;;;;;;;12.03;100.00;102045.34;5047456;28;20541;-74